Etusivu
METAR-TAF:

METAR-TAF

Lentoasemat :

Bardufoss, Norja

Leveyspiiri: 69-04N, Pituuspiiri: 018-32E, korkeus merenpinnasta: 7 m

Tämänhetkinen sää

Tämä raportti tehtiin 25 minuuttia sitten, kello 18.20 UTC
Tuuli 10 kn idästä/kaakosta
Lämpötila 18°C
Kosteus 56%
Ilmanpaine 1022 hPa
Näkyvyys 10 km tai enemmän

METAR: ENDU 221820Z AUTO 11010KT 9999 OVC053/// 18/09 Q1022 RMK WIND 1100FT 11009KT WIND 2200FT 11012KT

Aika: 20:45 (18:45 UTC)

Sääennuste

Ennuste voimassa 22. päivästä klo 18 UTC - 23. päivään klo 18 UTC
Tuuli 8 kn eri suunnista
Näkyvyys 10 km tai enemmän
Muutamia pilviä 4000 ft:n korkeudessa

TAF: ENDU 2218/2318 VRB08KT 9999 FEW040

Säähavainnot ja -ennusteet yli 4000 lentoasemalta (METAR- ja TAF-raportit).

Käytössä olevat sääasemat on merkitty karttaan keltaisilla ja punaisilla pisteillä.

Aseta hiiri pisteen päälle nähdäksesi sääaseman nimen.

Klikkaa sitten nähdäksesi säähavainnot ja -ennusteet.

Kartan vaihtaminen: klikkaa mustalla rastilla varustettuja vihreitä pisteitä, niin voit zoomata sisään; viivalla varustettua vihreää pistettä, niin voit zoomata ulos tai vihreitä nuolia, niin pääset viereisille kartoille.


METAR-TAF: